sensor_id;sensor_type;location;lat;lon;timestamp;pressure;altitude;pressure_sealevel;temperature;humidity
76337;BME280;65157;50.082;18.178;2023-02-05T00:01:53;101059.86;;;-1.94;75.94
76337;BME280;65157;50.082;18.178;2023-02-05T00:04:20;101062.33;;;-1.93;76.17
76337;BME280;65157;50.082;18.178;2023-02-05T00:06:46;101064.91;;;-1.93;76.25
76337;BME280;65157;50.082;18.178;2023-02-05T00:09:13;101064.45;;;-1.92;76.39
76337;BME280;65157;50.082;18.178;2023-02-05T00:11:40;101063.75;;;-1.91;76.57
76337;BME280;65157;50.082;18.178;2023-02-05T00:14:07;101064.52;;;-1.90;76.72
76337;BME280;65157;50.082;18.178;2023-02-05T00:16:34;101068.17;;;-1.89;76.94
76337;BME280;65157;50.082;18.178;2023-02-05T00:19:01;101065.59;;;-1.89;77.34
76337;BME280;65157;50.082;18.178;2023-02-05T00:21:27;101064.67;;;-1.90;77.35
76337;BME280;65157;50.082;18.178;2023-02-05T00:23:54;101062.77;;;-1.90;78.01
76337;BME280;65157;50.082;18.178;2023-02-05T00:26:21;101065.23;;;-1.94;78.10
76337;BME280;65157;50.082;18.178;2023-02-05T00:28:47;101068.25;;;-1.96;78.39
76337;BME280;65157;50.082;18.178;2023-02-05T00:31:17;101066.05;;;-1.99;78.50
76337;BME280;65157;50.082;18.178;2023-02-05T00:33:45;101065.59;;;-2.02;78.69
76337;BME280;65157;50.082;18.178;2023-02-05T00:36:13;101067.65;;;-2.02;78.70
76337;BME280;65157;50.082;18.178;2023-02-05T00:38:41;101070.89;;;-2.04;79.13
76337;BME280;65157;50.082;18.178;2023-02-05T00:41:08;101066.58;;;-2.08;79.55
76337;BME280;65157;50.082;18.178;2023-02-05T00:43:35;101067.00;;;-2.11;79.76
76337;BME280;65157;50.082;18.178;2023-02-05T00:46:01;101070.62;;;-2.15;80.23
76337;BME280;65157;50.082;18.178;2023-02-05T00:48:28;101068.60;;;-2.18;80.02
76337;BME280;65157;50.082;18.178;2023-02-05T00:50:55;101072.17;;;-2.20;80.31
76337;BME280;65157;50.082;18.178;2023-02-05T00:53:23;101071.27;;;-2.20;80.44
76337;BME280;65157;50.082;18.178;2023-02-05T00:55:50;101073.35;;;-2.20;80.56
76337;BME280;65157;50.082;18.178;2023-02-05T00:58:17;101074.02;;;-2.21;80.75
76337;BME280;65157;50.082;18.178;2023-02-05T01:00:45;101066.42;;;-2.21;80.84
76337;BME280;65157;50.082;18.178;2023-02-05T01:03:12;101068.73;;;-2.19;80.95
76337;BME280;65157;50.082;18.178;2023-02-05T01:05:39;101067.97;;;-2.21;81.25
76337;BME280;65157;50.082;18.178;2023-02-05T01:08:06;101070.19;;;-2.22;81.34
76337;BME280;65157;50.082;18.178;2023-02-05T01:10:34;101067.21;;;-2.23;81.41
76337;BME280;65157;50.082;18.178;2023-02-05T01:13:00;101067.41;;;-2.22;81.36
76337;BME280;65157;50.082;18.178;2023-02-05T01:15:27;101065.26;;;-2.25;82.29
76337;BME280;65157;50.082;18.178;2023-02-05T01:17:54;101061.05;;;-2.26;82.28
76337;BME280;65157;50.082;18.178;2023-02-05T01:20:21;101058.48;;;-2.25;82.23
76337;BME280;65157;50.082;18.178;2023-02-05T01:22:47;101060.79;;;-2.24;82.09
76337;BME280;65157;50.082;18.178;2023-02-05T01:25:14;101061.09;;;-2.25;81.90
76337;BME280;65157;50.082;18.178;2023-02-05T01:27:41;101051.48;;;-2.28;81.85
76337;BME280;65157;50.082;18.178;2023-02-05T01:30:08;101060.39;;;-2.21;81.55
76337;BME280;65157;50.082;18.178;2023-02-05T01:32:35;101060.65;;;-2.18;81.71
76337;BME280;65157;50.082;18.178;2023-02-05T01:35:01;101059.16;;;-2.17;81.48
76337;BME280;65157;50.082;18.178;2023-02-05T01:37:28;101056.88;;;-2.17;81.54
76337;BME280;65157;50.082;18.178;2023-02-05T01:39:54;101063.89;;;-2.15;81.64
76337;BME280;65157;50.082;18.178;2023-02-05T01:42:24;101062.41;;;-2.17;81.42
76337;BME280;65157;50.082;18.178;2023-02-05T01:50:26;101062.73;;;-2.18;80.98
76337;BME280;65157;50.082;18.178;2023-02-05T01:52:54;101064.09;;;-2.19;81.03
76337;BME280;65157;50.082;18.178;2023-02-05T01:55:23;101060.95;;;-2.19;81.29
76337;BME280;65157;50.082;18.178;2023-02-05T01:57:50;101063.87;;;-2.20;81.13
76337;BME280;65157;50.082;18.178;2023-02-05T02:00:19;101069.20;;;-2.21;80.95
76337;BME280;65157;50.082;18.178;2023-02-05T02:02:47;101068.98;;;-2.22;81.06
76337;BME280;65157;50.082;18.178;2023-02-05T02:05:16;101071.36;;;-2.23;81.25
76337;BME280;65157;50.082;18.178;2023-02-05T02:07:42;101073.27;;;-2.23;81.13
76337;BME280;65157;50.082;18.178;2023-02-05T02:10:13;101069.16;;;-2.22;81.30
76337;BME280;65157;50.082;18.178;2023-02-05T02:12:42;101074.43;;;-2.20;81.17
76337;BME280;65157;50.082;18.178;2023-02-05T02:15:16;101073.41;;;-2.19;81.20
76337;BME280;65157;50.082;18.178;2023-02-05T02:17:46;101074.69;;;-2.18;81.24
76337;BME280;65157;50.082;18.178;2023-02-05T02:20:17;101074.27;;;-2.19;81.01
76337;BME280;65157;50.082;18.178;2023-02-05T02:31:11;101073.41;;;-2.15;81.07
76337;BME280;65157;50.082;18.178;2023-02-05T02:36:12;101075.20;;;-2.13;81.26
76337;BME280;65157;50.082;18.178;2023-02-05T02:38:47;101077.77;;;-2.14;80.86
76337;BME280;65157;50.082;18.178;2023-02-05T02:41:19;101078.80;;;-2.14;81.19
76337;BME280;65157;50.082;18.178;2023-02-05T02:43:51;101077.35;;;-2.16;81.13
76337;BME280;65157;50.082;18.178;2023-02-05T02:46:48;101078.90;;;-2.16;81.36
76337;BME280;65157;50.082;18.178;2023-02-05T02:49:21;101073.40;;;-2.15;81.22
76337;BME280;65157;50.082;18.178;2023-02-05T02:51:51;101069.06;;;-2.16;81.31
76337;BME280;65157;50.082;18.178;2023-02-05T02:54:19;101065.52;;;-2.18;81.15
76337;BME280;65157;50.082;18.178;2023-02-05T02:56:48;101064.98;;;-2.19;81.21
76337;BME280;65157;50.082;18.178;2023-02-05T02:59:19;101065.64;;;-2.19;80.92
76337;BME280;65157;50.082;18.178;2023-02-05T03:01:52;101062.64;;;-2.20;80.90
76337;BME280;65157;50.082;18.178;2023-02-05T03:04:24;101063.41;;;-2.23;80.98
76337;BME280;65157;50.082;18.178;2023-02-05T03:06:55;101062.89;;;-2.23;81.00
76337;BME280;65157;50.082;18.178;2023-02-05T03:09:38;101060.66;;;-2.23;81.15
76337;BME280;65157;50.082;18.178;2023-02-05T03:12:07;101062.11;;;-2.25;81.01
76337;BME280;65157;50.082;18.178;2023-02-05T03:14:34;101066.64;;;-2.24;81.15
76337;BME280;65157;50.082;18.178;2023-02-05T03:17:01;101069.46;;;-2.23;81.29
76337;BME280;65157;50.082;18.178;2023-02-05T03:19:28;101069.29;;;-2.23;81.26
76337;BME280;65157;50.082;18.178;2023-02-05T03:22:00;101070.68;;;-2.23;81.28
76337;BME280;65157;50.082;18.178;2023-02-05T03:24:30;101070.83;;;-2.23;81.06
76337;BME280;65157;50.082;18.178;2023-02-05T03:26:57;101070.02;;;-2.22;81.18
76337;BME280;65157;50.082;18.178;2023-02-05T03:29:30;101069.02;;;-2.21;81.20
76337;BME280;65157;50.082;18.178;2023-02-05T03:42:55;101071.94;;;-2.17;80.96
76337;BME280;65157;50.082;18.178;2023-02-05T03:45:49;101071.00;;;-2.15;81.30
76337;BME280;65157;50.082;18.178;2023-02-05T03:51:49;101078.89;;;-2.12;81.07
76337;BME280;65157;50.082;18.178;2023-02-05T03:54:25;101080.36;;;-2.14;80.60
76337;BME280;65157;50.082;18.178;2023-02-05T03:59:37;101090.02;;;-2.15;80.82
76337;BME280;65157;50.082;18.178;2023-02-05T04:02:04;101090.89;;;-2.14;80.80
76337;BME280;65157;50.082;18.178;2023-02-05T04:04:31;101098.35;;;-2.14;80.88
76337;BME280;65157;50.082;18.178;2023-02-05T04:06:57;101097.98;;;-2.15;80.86
76337;BME280;65157;50.082;18.178;2023-02-05T04:09:24;101097.13;;;-2.14;80.88
76337;BME280;65157;50.082;18.178;2023-02-05T04:11:50;101097.19;;;-2.13;80.79
76337;BME280;65157;50.082;18.178;2023-02-05T04:14:17;101097.02;;;-2.13;80.57
76337;BME280;65157;50.082;18.178;2023-02-05T04:16:44;101102.84;;;-2.14;80.54
76337;BME280;65157;50.082;18.178;2023-02-05T04:19:10;101101.74;;;-2.16;80.63
76337;BME280;65157;50.082;18.178;2023-02-05T04:21:37;101098.06;;;-2.17;80.59
76337;BME280;65157;50.082;18.178;2023-02-05T04:24:04;101097.16;;;-2.18;80.43
76337;BME280;65157;50.082;18.178;2023-02-05T04:26:30;101099.58;;;-2.18;80.49
76337;BME280;65157;50.082;18.178;2023-02-05T04:28:57;101103.73;;;-2.18;80.35
76337;BME280;65157;50.082;18.178;2023-02-05T04:31:23;101104.77;;;-2.18;80.35
76337;BME280;65157;50.082;18.178;2023-02-05T04:33:50;101110.14;;;-2.18;80.09
76337;BME280;65157;50.082;18.178;2023-02-05T04:36:17;101106.14;;;-2.19;80.39
76337;BME280;65157;50.082;18.178;2023-02-05T04:38:43;101103.89;;;-2.18;80.25
76337;BME280;65157;50.082;18.178;2023-02-05T04:41:10;101104.34;;;-2.20;79.97
76337;BME280;65157;50.082;18.178;2023-02-05T04:43:37;101104.94;;;-2.22;80.06
76337;BME280;65157;50.082;18.178;2023-02-05T04:46:07;101109.80;;;-2.22;80.13
76337;BME280;65157;50.082;18.178;2023-02-05T04:48:34;101113.49;;;-2.21;79.95
76337;BME280;65157;50.082;18.178;2023-02-05T04:51:09;101115.56;;;-2.20;80.08
76337;BME280;65157;50.082;18.178;2023-02-05T04:53:36;101116.93;;;-2.21;79.94
76337;BME280;65157;50.082;18.178;2023-02-05T04:56:08;101115.20;;;-2.21;80.02
76337;BME280;65157;50.082;18.178;2023-02-05T04:58:35;101122.45;;;-2.21;79.82
76337;BME280;65157;50.082;18.178;2023-02-05T05:01:02;101128.70;;;-2.21;80.01
76337;BME280;65157;50.082;18.178;2023-02-05T05:03:29;101127.80;;;-2.22;80.00
76337;BME280;65157;50.082;18.178;2023-02-05T05:05:55;101131.03;;;-2.23;80.03
76337;BME280;65157;50.082;18.178;2023-02-05T05:08:22;101131.69;;;-2.24;79.87
76337;BME280;65157;50.082;18.178;2023-02-05T05:10:49;101131.47;;;-2.25;80.04
76337;BME280;65157;50.082;18.178;2023-02-05T05:13:15;101136.08;;;-2.26;80.09
76337;BME280;65157;50.082;18.178;2023-02-05T05:15:42;101143.52;;;-2.27;80.02
76337;BME280;65157;50.082;18.178;2023-02-05T05:18:08;101144.83;;;-2.29;79.98
76337;BME280;65157;50.082;18.178;2023-02-05T05:20:35;101149.30;;;-2.29;79.94
76337;BME280;65157;50.082;18.178;2023-02-05T05:23:02;101153.11;;;-2.29;79.79
76337;BME280;65157;50.082;18.178;2023-02-05T05:25:28;101162.41;;;-2.30;79.63
76337;BME280;65157;50.082;18.178;2023-02-05T05:27:55;101164.61;;;-2.31;79.72
76337;BME280;65157;50.082;18.178;2023-02-05T05:30:21;101169.15;;;-2.30;79.58
76337;BME280;65157;50.082;18.178;2023-02-05T05:32:48;101167.23;;;-2.31;79.56
76337;BME280;65157;50.082;18.178;2023-02-05T05:35:15;101170.98;;;-2.32;79.32
76337;BME280;65157;50.082;18.178;2023-02-05T05:37:41;101173.39;;;-2.32;79.45
76337;BME280;65157;50.082;18.178;2023-02-05T05:40:09;101180.98;;;-2.33;79.38
76337;BME280;65157;50.082;18.178;2023-02-05T05:42:37;101185.73;;;-2.35;79.03
76337;BME280;65157;50.082;18.178;2023-02-05T05:45:04;101189.27;;;-2.37;79.16
76337;BME280;65157;50.082;18.178;2023-02-05T05:47:31;101195.29;;;-2.38;78.86
76337;BME280;65157;50.082;18.178;2023-02-05T05:49:57;101203.02;;;-2.39;78.98
76337;BME280;65157;50.082;18.178;2023-02-05T05:52:24;101199.85;;;-2.40;79.26
76337;BME280;65157;50.082;18.178;2023-02-05T05:54:51;101202.01;;;-2.43;78.91
76337;BME280;65157;50.082;18.178;2023-02-05T05:57:17;101204.36;;;-2.44;78.81
76337;BME280;65157;50.082;18.178;2023-02-05T05:59:44;101204.69;;;-2.45;78.96
76337;BME280;65157;50.082;18.178;2023-02-05T06:02:11;101212.27;;;-2.45;79.09
76337;BME280;65157;50.082;18.178;2023-02-05T06:04:37;101215.16;;;-2.46;79.30
76337;BME280;65157;50.082;18.178;2023-02-05T06:07:04;101221.39;;;-2.47;79.39
76337;BME280;65157;50.082;18.178;2023-02-05T06:09:30;101224.98;;;-2.47;79.51
76337;BME280;65157;50.082;18.178;2023-02-05T06:11:57;101230.83;;;-2.48;79.49
76337;BME280;65157;50.082;18.178;2023-02-05T06:14:24;101234.02;;;-2.50;79.46
76337;BME280;65157;50.082;18.178;2023-02-05T06:16:51;101239.23;;;-2.50;79.64
76337;BME280;65157;50.082;18.178;2023-02-05T06:19:17;101242.86;;;-2.49;79.99
76337;BME280;65157;50.082;18.178;2023-02-05T06:21:44;101246.99;;;-2.50;79.95
76337;BME280;65157;50.082;18.178;2023-02-05T06:24:10;101249.88;;;-2.51;80.05
76337;BME280;65157;50.082;18.178;2023-02-05T06:26:37;101252.35;;;-2.50;80.04
76337;BME280;65157;50.082;18.178;2023-02-05T06:29:04;101255.51;;;-2.49;80.21
76337;BME280;65157;50.082;18.178;2023-02-05T06:31:30;101256.60;;;-2.48;80.36
76337;BME280;65157;50.082;18.178;2023-02-05T06:33:57;101260.64;;;-2.46;79.88
76337;BME280;65157;50.082;18.178;2023-02-05T06:36:24;101261.59;;;-2.44;80.21
76337;BME280;65157;50.082;18.178;2023-02-05T06:38:51;101260.66;;;-2.42;79.55
76337;BME280;65157;50.082;18.178;2023-02-05T06:41:17;101265.86;;;-2.41;79.32
76337;BME280;65157;50.082;18.178;2023-02-05T06:43:44;101267.11;;;-2.40;79.22
76337;BME280;65157;50.082;18.178;2023-02-05T06:46:10;101265.31;;;-2.38;79.54
76337;BME280;65157;50.082;18.178;2023-02-05T06:48:37;101265.08;;;-2.36;79.28
76337;BME280;65157;50.082;18.178;2023-02-05T06:51:04;101264.46;;;-2.34;79.40
76337;BME280;65157;50.082;18.178;2023-02-05T06:53:31;101257.23;;;-2.33;79.22
76337;BME280;65157;50.082;18.178;2023-02-05T06:55:58;101256.30;;;-2.31;79.27
76337;BME280;65157;50.082;18.178;2023-02-05T06:58:24;101254.82;;;-2.28;79.18
76337;BME280;65157;50.082;18.178;2023-02-05T07:00:51;101251.75;;;-2.32;79.25
76337;BME280;65157;50.082;18.178;2023-02-05T07:03:17;101255.44;;;-2.34;79.20
76337;BME280;65157;50.082;18.178;2023-02-05T07:05:44;101257.99;;;-2.35;79.47
76337;BME280;65157;50.082;18.178;2023-02-05T07:08:10;101260.60;;;-2.35;79.61
76337;BME280;65157;50.082;18.178;2023-02-05T07:10:37;101265.99;;;-2.34;79.57
76337;BME280;65157;50.082;18.178;2023-02-05T07:13:04;101268.52;;;-2.36;78.87
76337;BME280;65157;50.082;18.178;2023-02-05T07:15:35;101271.83;;;-2.39;79.00
76337;BME280;65157;50.082;18.178;2023-02-05T07:18:02;101277.38;;;-2.39;79.38
76337;BME280;65157;50.082;18.178;2023-02-05T07:20:30;101282.17;;;-2.40;79.04
76337;BME280;65157;50.082;18.178;2023-02-05T07:22:57;101288.36;;;-2.41;78.83
76337;BME280;65157;50.082;18.178;2023-02-05T07:25:23;101290.52;;;-2.43;78.76
76337;BME280;65157;50.082;18.178;2023-02-05T07:27:50;101292.21;;;-2.44;78.50
76337;BME280;65157;50.082;18.178;2023-02-05T07:30:17;101291.90;;;-2.47;78.38
76337;BME280;65157;50.082;18.178;2023-02-05T07:32:43;101292.56;;;-2.52;78.04
76337;BME280;65157;50.082;18.178;2023-02-05T07:35:10;101295.40;;;-2.54;78.28
76337;BME280;65157;50.082;18.178;2023-02-05T07:37:37;101296.48;;;-2.53;78.34
76337;BME280;65157;50.082;18.178;2023-02-05T07:40:04;101301.95;;;-2.50;78.57
76337;BME280;65157;50.082;18.178;2023-02-05T07:42:32;101298.52;;;-2.46;78.40
76337;BME280;65157;50.082;18.178;2023-02-05T07:44:59;101295.02;;;-2.43;77.98
76337;BME280;65157;50.082;18.178;2023-02-05T07:47:25;101291.50;;;-2.36;78.09
76337;BME280;65157;50.082;18.178;2023-02-05T07:49:52;101290.52;;;-2.31;77.80
76337;BME280;65157;50.082;18.178;2023-02-05T07:52:19;101291.60;;;-2.30;78.00
76337;BME280;65157;50.082;18.178;2023-02-05T07:54:45;101291.91;;;-2.18;77.72
76337;BME280;65157;50.082;18.178;2023-02-05T07:57:12;101293.34;;;-1.96;77.37
76337;BME280;65157;50.082;18.178;2023-02-05T07:59:39;101298.91;;;-1.70;77.41
76337;BME280;65157;50.082;18.178;2023-02-05T08:02:05;101297.96;;;-1.41;76.47
76337;BME280;65157;50.082;18.178;2023-02-05T08:04:32;101299.40;;;-1.39;76.06
76337;BME280;65157;50.082;18.178;2023-02-05T08:06:58;101297.77;;;-1.42;76.38
76337;BME280;65157;50.082;18.178;2023-02-05T08:09:26;101295.96;;;-1.44;76.40
76337;BME280;65157;50.082;18.178;2023-02-05T08:11:52;101296.36;;;-1.47;76.38
76337;BME280;65157;50.082;18.178;2023-02-05T08:14:19;101306.49;;;-1.53;75.81
76337;BME280;65157;50.082;18.178;2023-02-05T08:16:46;101306.29;;;-1.58;75.90
76337;BME280;65157;50.082;18.178;2023-02-05T08:19:14;101310.05;;;-1.64;76.04
76337;BME280;65157;50.082;18.178;2023-02-05T08:21:41;101307.83;;;-1.67;76.05
76337;BME280;65157;50.082;18.178;2023-02-05T08:24:09;101311.63;;;-1.68;75.78
76337;BME280;65157;50.082;18.178;2023-02-05T08:26:35;101311.70;;;-1.70;75.90
76337;BME280;65157;50.082;18.178;2023-02-05T08:29:02;101307.83;;;-1.72;76.09
76337;BME280;65157;50.082;18.178;2023-02-05T08:31:29;101308.17;;;-1.72;75.51
76337;BME280;65157;50.082;18.178;2023-02-05T08:33:57;101307.12;;;-1.77;75.33
76337;BME280;65157;50.082;18.178;2023-02-05T08:36:23;101311.36;;;-1.79;75.45
76337;BME280;65157;50.082;18.178;2023-02-05T08:38:50;101318.60;;;-1.84;74.82
76337;BME280;65157;50.082;18.178;2023-02-05T08:41:17;101322.23;;;-1.88;75.24
76337;BME280;65157;50.082;18.178;2023-02-05T08:43:46;101325.80;;;-1.94;75.09
76337;BME280;65157;50.082;18.178;2023-02-05T08:46:15;101330.66;;;-2.02;75.44
76337;BME280;65157;50.082;18.178;2023-02-05T08:48:43;101327.58;;;-2.01;75.86
76337;BME280;65157;50.082;18.178;2023-02-05T08:51:11;101326.73;;;-2.01;75.63
76337;BME280;65157;50.082;18.178;2023-02-05T08:53:39;101324.69;;;-2.00;75.81
76337;BME280;65157;50.082;18.178;2023-02-05T08:56:06;101327.16;;;-1.98;75.69
76337;BME280;65157;50.082;18.178;2023-02-05T08:58:33;101329.98;;;-1.97;75.55
76337;BME280;65157;50.082;18.178;2023-02-05T09:01:11;101329.75;;;-1.94;75.25
76337;BME280;65157;50.082;18.178;2023-02-05T09:03:38;101331.73;;;-1.93;75.11
76337;BME280;65157;50.082;18.178;2023-02-05T09:06:11;101333.47;;;-1.92;74.96
76337;BME280;65157;50.082;18.178;2023-02-05T09:08:39;101333.50;;;-1.92;74.95
76337;BME280;65157;50.082;18.178;2023-02-05T09:11:06;101333.95;;;-1.89;74.77
76337;BME280;65157;50.082;18.178;2023-02-05T09:13:34;101332.39;;;-1.85;74.96
76337;BME280;65157;50.082;18.178;2023-02-05T09:16:02;101331.30;;;-1.78;74.89
76337;BME280;65157;50.082;18.178;2023-02-05T09:18:28;101332.78;;;-1.71;75.15
76337;BME280;65157;50.082;18.178;2023-02-05T09:20:55;101337.13;;;-1.66;74.49
76337;BME280;65157;50.082;18.178;2023-02-05T09:23:22;101337.95;;;-1.67;74.10
76337;BME280;65157;50.082;18.178;2023-02-05T09:25:48;101335.95;;;-1.66;74.40
76337;BME280;65157;50.082;18.178;2023-02-05T09:28:15;101339.29;;;-1.64;74.20
76337;BME280;65157;50.082;18.178;2023-02-05T09:30:44;101344.12;;;-1.60;74.05
76337;BME280;65157;50.082;18.178;2023-02-05T09:33:11;101343.00;;;-1.62;73.74
76337;BME280;65157;50.082;18.178;2023-02-05T09:35:39;101342.90;;;-1.56;73.95
76337;BME280;65157;50.082;18.178;2023-02-05T09:38:05;101343.98;;;-1.51;73.60
76337;BME280;65157;50.082;18.178;2023-02-05T09:45:56;101340.25;;;-0.82;72.91
76337;BME280;65157;50.082;18.178;2023-02-05T09:51:41;101334.42;;;-0.56;73.63
76337;BME280;65157;50.082;18.178;2023-02-05T09:56:45;101326.69;;;-0.30;72.75
76337;BME280;65157;50.082;18.178;2023-02-05T09:59:21;101332.77;;;-0.15;72.63
76337;BME280;65157;50.082;18.178;2023-02-05T10:01:56;101327.11;;;-0.02;72.70
76337;BME280;65157;50.082;18.178;2023-02-05T10:04:24;101324.36;;;0.09;72.26
76337;BME280;65157;50.082;18.178;2023-02-05T10:07:03;101324.62;;;0.17;72.29
76337;BME280;65157;50.082;18.178;2023-02-05T10:20:23;101308.89;;;0.85;70.34
76337;BME280;65157;50.082;18.178;2023-02-05T10:28:48;101304.77;;;0.69;70.06
76337;BME280;65157;50.082;18.178;2023-02-05T10:31:33;101300.76;;;0.58;70.01
76337;BME280;65157;50.082;18.178;2023-02-05T10:34:45;101304.50;;;0.50;70.06
76337;BME280;65157;50.082;18.178;2023-02-05T10:37:19;101309.90;;;0.39;69.99
76337;BME280;65157;50.082;18.178;2023-02-05T10:39:46;101304.95;;;0.25;69.86
76337;BME280;65157;50.082;18.178;2023-02-05T10:42:43;101319.48;;;0.24;69.69
76337;BME280;65157;50.082;18.178;2023-02-05T10:45:17;101314.64;;;0.09;69.28
76337;BME280;65157;50.082;18.178;2023-02-05T10:50:44;101316.60;;;-0.05;69.56
76337;BME280;65157;50.082;18.178;2023-02-05T10:53:19;101315.21;;;-0.10;69.36
76337;BME280;65157;50.082;18.178;2023-02-05T10:55:47;101317.45;;;-0.16;68.93
76337;BME280;65157;50.082;18.178;2023-02-05T11:01:05;101313.02;;;-0.33;68.91
76337;BME280;65157;50.082;18.178;2023-02-05T11:03:33;101315.50;;;-0.42;69.42
76337;BME280;65157;50.082;18.178;2023-02-05T11:06:02;101314.84;;;-0.46;69.88
76337;BME280;65157;50.082;18.178;2023-02-05T11:08:36;101311.67;;;-0.52;69.62
76337;BME280;65157;50.082;18.178;2023-02-05T11:11:05;101311.73;;;-0.55;70.53
76337;BME280;65157;50.082;18.178;2023-02-05T11:13:37;101315.62;;;-0.53;70.61
76337;BME280;65157;50.082;18.178;2023-02-05T11:16:07;101315.77;;;-0.49;70.59
76337;BME280;65157;50.082;18.178;2023-02-05T11:18:43;101316.38;;;-0.46;70.44
76337;BME280;65157;50.082;18.178;2023-02-05T11:21:11;101313.06;;;-0.47;70.24
76337;BME280;65157;50.082;18.178;2023-02-05T11:23:39;101311.88;;;-0.51;69.81
76337;BME280;65157;50.082;18.178;2023-02-05T11:26:25;101310.89;;;-0.54;70.27
76337;BME280;65157;50.082;18.178;2023-02-05T11:28:51;101312.02;;;-0.62;69.07
76337;BME280;65157;50.082;18.178;2023-02-05T11:31:24;101322.44;;;-0.66;69.83
76337;BME280;65157;50.082;18.178;2023-02-05T11:36:37;101318.72;;;-0.69;70.13
76337;BME280;65157;50.082;18.178;2023-02-05T11:39:05;101318.05;;;-0.68;70.20
76337;BME280;65157;50.082;18.178;2023-02-05T11:41:34;101313.33;;;-0.69;70.05
76337;BME280;65157;50.082;18.178;2023-02-05T11:44:02;101312.81;;;-0.69;70.32
76337;BME280;65157;50.082;18.178;2023-02-05T11:46:34;101310.65;;;-0.71;70.23
76337;BME280;65157;50.082;18.178;2023-02-05T11:49:37;101304.55;;;-0.72;70.38
76337;BME280;65157;50.082;18.178;2023-02-05T11:52:13;101305.59;;;-0.72;70.08
76337;BME280;65157;50.082;18.178;2023-02-05T11:54:45;101298.70;;;-0.71;70.25
76337;BME280;65157;50.082;18.178;2023-02-05T11:59:39;101294.95;;;-0.69;69.42
76337;BME280;65157;50.082;18.178;2023-02-05T12:05:09;101294.31;;;-0.68;69.56
76337;BME280;65157;50.082;18.178;2023-02-05T12:08:05;101297.80;;;-0.67;69.24
76337;BME280;65157;50.082;18.178;2023-02-05T12:11:16;101301.11;;;-0.66;69.20
76337;BME280;65157;50.082;18.178;2023-02-05T12:14:13;101302.36;;;-0.65;69.35
76337;BME280;65157;50.082;18.178;2023-02-05T12:19:50;101303.86;;;-0.67;69.22
76337;BME280;65157;50.082;18.178;2023-02-05T12:25:53;101299.94;;;-0.75;68.34
76337;BME280;65157;50.082;18.178;2023-02-05T12:28:25;101299.90;;;-0.76;69.11
76337;BME280;65157;50.082;18.178;2023-02-05T12:31:26;101298.13;;;-0.77;69.04
76337;BME280;65157;50.082;18.178;2023-02-05T12:34:10;101296.84;;;-0.84;67.45
76337;BME280;65157;50.082;18.178;2023-02-05T12:36:45;101302.90;;;-0.88;68.83
76337;BME280;65157;50.082;18.178;2023-02-05T12:42:45;101303.56;;;-0.89;68.56
76337;BME280;65157;50.082;18.178;2023-02-05T12:48:07;101301.06;;;-0.91;68.39
76337;BME280;65157;50.082;18.178;2023-02-05T12:50:49;101308.96;;;-0.93;69.21
76337;BME280;65157;50.082;18.178;2023-02-05T12:56:16;101307.51;;;-0.95;69.29
76337;BME280;65157;50.082;18.178;2023-02-05T12:58:53;101303.02;;;-0.99;68.01
76337;BME280;65157;50.082;18.178;2023-02-05T13:04:27;101299.30;;;-1.06;69.09
76337;BME280;65157;50.082;18.178;2023-02-05T13:06:59;101302.24;;;-1.06;68.95
76337;BME280;65157;50.082;18.178;2023-02-05T13:09:44;101299.21;;;-1.08;68.99
76337;BME280;65157;50.082;18.178;2023-02-05T13:12:17;101302.02;;;-1.08;68.85
76337;BME280;65157;50.082;18.178;2023-02-05T13:17:36;101300.26;;;-1.13;68.60
76337;BME280;65157;50.082;18.178;2023-02-05T13:20:06;101299.16;;;-1.14;68.11
76337;BME280;65157;50.082;18.178;2023-02-05T13:22:54;101299.98;;;-1.15;68.58
76337;BME280;65157;50.082;18.178;2023-02-05T13:25:37;101295.11;;;-1.16;68.25
76337;BME280;65157;50.082;18.178;2023-02-05T13:30:45;101295.27;;;-1.17;67.83
76337;BME280;65157;50.082;18.178;2023-02-05T13:33:12;101291.92;;;-1.18;67.81
76337;BME280;65157;50.082;18.178;2023-02-05T13:36:02;101294.81;;;-1.20;67.60
76337;BME280;65157;50.082;18.178;2023-02-05T13:38:46;101292.96;;;-1.23;67.67
76337;BME280;65157;50.082;18.178;2023-02-05T13:47:24;101300.30;;;-1.35;66.29
76337;BME280;65157;50.082;18.178;2023-02-05T14:00:55;101280.36;;;-1.39;68.22
76337;BME280;65157;50.082;18.178;2023-02-05T14:03:36;101278.65;;;-1.39;68.17
76337;BME280;65157;50.082;18.178;2023-02-05T14:06:26;101277.62;;;-1.39;68.07
76337;BME280;65157;50.082;18.178;2023-02-05T14:09:03;101286.25;;;-1.39;68.61
76337;BME280;65157;50.082;18.178;2023-02-05T14:11:52;101290.99;;;-1.38;68.58
76337;BME280;65157;50.082;18.178;2023-02-05T14:14:23;101295.11;;;-1.39;68.39
76337;BME280;65157;50.082;18.178;2023-02-05T14:16:50;101296.80;;;-1.40;68.48
76337;BME280;65157;50.082;18.178;2023-02-05T14:19:48;101297.19;;;-1.43;68.11
76337;BME280;65157;50.082;18.178;2023-02-05T14:22:34;101300.57;;;-1.45;68.68
76337;BME280;65157;50.082;18.178;2023-02-05T14:25:02;101297.73;;;-1.47;68.70
76337;BME280;65157;50.082;18.178;2023-02-05T14:30:35;101299.73;;;-1.53;67.96
76337;BME280;65157;50.082;18.178;2023-02-05T14:38:00;101314.55;;;-1.64;68.39
76337;BME280;65157;50.082;18.178;2023-02-05T14:40:29;101310.16;;;-1.66;68.64
76337;BME280;65157;50.082;18.178;2023-02-05T14:43:00;101306.40;;;-1.68;68.43
76337;BME280;65157;50.082;18.178;2023-02-05T14:45:27;101312.27;;;-1.69;68.85
76337;BME280;65157;50.082;18.178;2023-02-05T14:47:55;101311.66;;;-1.71;68.80
76337;BME280;65157;50.082;18.178;2023-02-05T14:50:26;101308.27;;;-1.74;68.72
76337;BME280;65157;50.082;18.178;2023-02-05T14:52:59;101308.34;;;-1.77;68.18
76337;BME280;65157;50.082;18.178;2023-02-05T14:55:37;101310.21;;;-1.81;68.70
76337;BME280;65157;50.082;18.178;2023-02-05T14:58:06;101311.98;;;-1.84;68.95
76337;BME280;65157;50.082;18.178;2023-02-05T15:00:44;101313.38;;;-1.88;68.21